createdAt,value
2023-02-15T16:33:12.598Z,16.60
2023-02-15T16:34:13.184Z,58.50
2023-02-15T16:35:13.392Z,58.80
2023-02-15T16:36:13.620Z,58.40
2023-02-15T16:37:13.866Z,59.10
2023-02-15T16:38:14.219Z,57.80
2023-02-15T16:39:14.290Z,59.50
2023-02-15T16:40:14.529Z,60.80
2023-02-15T16:41:14.784Z,61.00
2023-02-15T16:42:15.030Z,58.40
2023-02-15T16:43:15.326Z,60.60
2023-02-15T16:44:15.514Z,60.40
2023-02-15T16:45:15.742Z,57.90
2023-02-15T16:46:16.000Z,61.30
2023-02-15T16:47:16.213Z,63.00
2023-02-15T16:48:16.540Z,59.20
2023-02-15T16:49:16.679Z,61.00
2023-02-15T16:50:16.918Z,60.10
2023-02-15T16:51:17.150Z,56.40
2023-02-15T16:52:17.384Z,60.00
2023-02-15T16:53:17.670Z,58.80
2023-02-15T16:54:17.868Z,57.90
2023-02-15T16:55:18.111Z,61.20
2023-02-15T16:56:18.347Z,62.50
2023-02-15T16:57:18.567Z,60.00
2023-02-15T16:58:18.819Z,59.90
2023-02-15T16:59:19.034Z,56.30
2023-02-15T17:00:19.298Z,60.00
2023-02-15T17:01:19.582Z,57.50
2023-02-15T17:02:40.183Z,59.40
2023-02-15T17:03:20.036Z,58.70
2023-02-15T17:04:20.192Z,57.40
2023-02-15T17:05:20.427Z,61.60
2023-02-15T17:06:20.656Z,60.80
2023-02-15T17:07:20.892Z,62.80
2023-02-15T17:08:21.285Z,63.90
2023-02-15T17:09:21.354Z,63.50
2023-02-15T17:10:21.594Z,61.20
2023-02-15T17:11:21.827Z,63.30
2023-02-15T17:12:22.049Z,65.90
2023-02-15T17:13:22.360Z,63.80
2023-02-15T17:14:22.516Z,63.50
2023-02-15T17:15:22.745Z,59.40
2023-02-15T17:16:23.049Z,63.10
2023-02-15T17:17:23.221Z,62.20
2023-02-15T17:18:23.498Z,63.00
2023-02-15T17:19:23.673Z,59.80
2023-02-15T17:20:23.902Z,58.60
2023-02-15T17:21:24.174Z,60.00
2023-02-15T17:22:24.390Z,61.90
2023-02-15T17:23:24.621Z,62.50
2023-02-15T17:24:24.870Z,62.50
2023-02-15T17:25:25.105Z,58.80
2023-02-15T17:26:25.367Z,57.40
2023-02-15T17:27:25.612Z,60.10
2023-02-15T17:28:25.967Z,58.10
2023-02-15T17:29:26.077Z,59.40
2023-02-15T17:30:26.335Z,59.90
2023-02-15T17:31:26.758Z,59.10
2023-02-15T17:32:26.905Z,57.50
2023-02-15T17:33:27.015Z,58.50
2023-02-15T17:34:27.201Z,57.30
2023-02-15T17:35:27.446Z,58.30
2023-02-15T17:36:27.702Z,58.20
2023-02-15T17:37:27.909Z,54.80
2023-02-15T17:38:28.143Z,56.50
2023-02-15T17:39:28.421Z,57.60
2023-02-15T17:40:28.627Z,58.70
2023-02-15T17:41:28.865Z,55.40
2023-02-15T17:42:29.148Z,54.60
2023-02-15T17:43:29.363Z,57.90
2023-02-15T17:44:29.836Z,57.60
2023-02-15T17:45:29.918Z,58.70
2023-02-15T17:46:30.119Z,56.40
2023-02-15T17:47:30.366Z,55.90
2023-02-15T17:48:30.644Z,57.80
2023-02-15T17:49:30.990Z,57.60
2023-02-15T17:50:31.126Z,56.60
2023-02-15T17:51:31.403Z,55.40
2023-02-15T17:52:31.639Z,52.80
2023-02-15T17:53:31.882Z,57.60
2023-02-15T17:54:32.175Z,53.30
2023-02-15T17:55:32.365Z,52.50
2023-02-15T17:56:32.620Z,55.00
2023-02-15T17:57:32.949Z,52.80
2023-02-15T17:58:33.145Z,52.30
2023-02-15T17:59:33.397Z,51.40
2023-02-15T18:00:33.711Z,49.50
2023-02-15T18:01:34.029Z,51.30
2023-02-15T18:02:34.166Z,48.70
2023-02-15T18:03:34.487Z,52.80
2023-02-15T18:04:34.810Z,48.80
2023-02-15T18:05:34.965Z,52.30
2023-02-15T18:06:35.159Z,51.90
2023-02-15T18:07:35.429Z,50.20
2023-02-15T18:08:36.363Z,53.00
2023-02-15T18:09:35.966Z,52.00
2023-02-15T18:10:36.193Z,49.90
2023-02-15T18:11:36.385Z,50.00
2023-02-15T18:12:36.732Z,49.50
2023-02-15T18:13:36.915Z,49.10
2023-02-15T18:14:37.144Z,51.10
2023-02-15T18:15:37.413Z,51.40
2023-02-15T18:16:37.682Z,51.10
2023-02-15T18:17:37.963Z,49.30
2023-02-15T18:18:38.252Z,49.30
2023-02-15T18:19:38.431Z,51.50
2023-02-15T18:20:38.702Z,51.90
2023-02-15T18:21:38.972Z,49.70
2023-02-15T18:22:39.261Z,51.10
2023-02-15T18:23:39.499Z,52.30
2023-02-15T18:24:39.698Z,49.10
2023-02-15T18:25:39.953Z,51.50
2023-02-15T18:26:40.206Z,51.80
2023-02-15T18:27:40.477Z,53.00
2023-02-15T18:28:40.742Z,53.00
2023-02-15T18:29:40.960Z,51.30
2023-02-15T18:30:41.314Z,52.80
2023-02-15T18:31:41.691Z,51.70
2023-02-15T18:32:41.755Z,50.70
2023-02-15T18:33:42.179Z,48.20
2023-02-15T18:34:42.261Z,48.60
2023-02-15T18:35:42.495Z,50.40
2023-02-15T18:36:42.757Z,49.70
2023-02-15T18:37:42.969Z,51.80
2023-02-15T18:38:43.230Z,48.80
2023-02-15T18:39:43.837Z,49.20
2023-02-15T18:40:43.736Z,48.00
2023-02-15T18:41:44.076Z,50.20
2023-02-15T18:42:44.253Z,49.60
2023-02-15T18:43:44.498Z,48.30
2023-02-15T18:44:44.887Z,50.60
2023-02-15T18:45:45.034Z,51.70
2023-02-15T18:46:45.254Z,50.40
2023-02-15T18:47:45.510Z,51.60
2023-02-15T18:48:45.769Z,49.90
2023-02-15T18:49:46.043Z,49.10
2023-02-15T18:50:46.243Z,49.80
2023-02-15T18:51:46.486Z,49.10
2023-02-15T18:52:46.718Z,50.30
2023-02-15T18:53:46.973Z,50.00
2023-02-15T18:54:47.243Z,49.30
2023-02-15T18:55:47.445Z,50.50
2023-02-15T18:56:47.733Z,51.10
2023-02-15T18:57:47.926Z,53.00
2023-02-15T18:58:48.182Z,51.70
2023-02-15T18:59:48.592Z,51.70
2023-02-15T19:00:48.761Z,52.00
2023-02-15T19:01:48.925Z,51.70
2023-02-15T19:02:49.181Z,50.50
2023-02-15T19:03:49.699Z,50.20
2023-02-15T19:04:50.067Z,53.00
2023-02-15T19:05:49.995Z,50.10
2023-02-15T19:06:50.190Z,48.80
2023-02-15T19:07:50.451Z,51.40
2023-02-15T19:08:50.713Z,50.30
2023-02-15T19:09:51.004Z,52.80
2023-02-15T19:10:51.171Z,50.90
2023-02-15T19:11:51.423Z,53.00
2023-02-15T19:12:51.669Z,51.90
2023-02-15T19:13:51.926Z,49.90
2023-02-15T19:14:52.358Z,50.00
2023-02-15T19:15:52.430Z,52.20
2023-02-15T19:16:52.940Z,52.80
2023-02-15T19:17:52.924Z,51.10
2023-02-15T19:18:53.182Z,47.60
2023-02-15T19:19:53.419Z,49.40
2023-02-15T19:20:53.691Z,48.80
2023-02-15T19:21:53.921Z,50.00
2023-02-15T19:22:54.084Z,49.30
2023-02-15T19:23:54.316Z,47.50
2023-02-15T19:24:54.586Z,48.90
2023-02-15T19:25:54.945Z,47.90
2023-02-15T19:26:55.010Z,49.50
2023-02-15T19:27:55.397Z,49.70
2023-02-15T19:28:55.548Z,50.50
2023-02-15T19:29:55.816Z,51.30
2023-02-15T19:30:56.091Z,50.20
2023-02-15T19:31:56.293Z,50.40
2023-02-15T19:32:56.420Z,47.80
2023-02-15T19:33:56.696Z,49.40
2023-02-15T19:34:56.940Z,51.40
2023-02-15T19:35:57.718Z,52.10
2023-02-15T19:36:57.441Z,50.80
2023-02-15T19:37:57.686Z,50.00
2023-02-15T19:38:57.953Z,51.70
2023-02-15T19:39:58.196Z,50.40
2023-02-15T19:40:58.496Z,48.70
2023-02-15T19:41:58.728Z,52.30
2023-02-15T19:42:59.161Z,50.90
2023-02-15T19:43:59.436Z,50.10
2023-02-15T19:44:59.462Z,51.30
2023-02-15T19:45:59.798Z,49.00
2023-02-15T19:47:00.165Z,50.10
2023-02-15T19:48:00.177Z,49.40
2023-02-15T19:49:00.450Z,49.10
2023-02-15T19:50:00.669Z,48.00
2023-02-15T19:51:00.877Z,51.00
2023-02-15T19:52:01.127Z,46.70
2023-02-15T19:53:01.393Z,49.20
2023-02-15T19:54:01.575Z,52.30
2023-02-15T19:55:01.807Z,50.40
2023-02-15T19:56:02.365Z,53.50
2023-02-15T19:57:02.300Z,52.00
2023-02-15T19:58:02.476Z,54.50
2023-02-15T19:59:02.899Z,53.20
2023-02-15T20:00:15.835Z,53.40
2023-02-15T20:01:03.757Z,50.20
2023-02-15T20:02:03.520Z,50.40
2023-02-15T20:03:03.677Z,53.10
2023-02-15T20:04:03.992Z,55.10
2023-02-15T20:05:04.202Z,53.80
2023-02-15T20:06:04.328Z,48.20
2023-02-15T20:07:04.580Z,50.20
2023-02-15T20:08:04.804Z,50.90
2023-02-15T20:09:05.138Z,54.40
2023-02-15T20:10:05.260Z,53.50
2023-02-15T20:11:05.689Z,52.30
2023-02-15T20:12:05.739Z,53.10
2023-02-15T20:13:05.965Z,51.50
2023-02-15T20:14:06.253Z,52.60
2023-02-15T20:15:06.470Z,51.30
2023-02-15T20:16:06.783Z,49.00
2023-02-15T20:17:07.014Z,49.40
2023-02-15T20:18:07.366Z,51.20
2023-02-15T20:19:07.426Z,50.80
2023-02-15T20:20:07.645Z,48.00
2023-02-15T20:21:07.907Z,46.60
2023-02-15T20:22:08.097Z,49.50
2023-02-15T20:23:08.391Z,47.10
2023-02-15T20:24:08.563Z,47.10
2023-02-15T20:25:08.791Z,50.10
2023-02-15T20:26:09.033Z,47.30
2023-02-15T20:27:09.243Z,45.00
2023-02-15T20:28:09.566Z,44.80
2023-02-15T20:29:09.719Z,44.70
2023-02-15T20:30:09.996Z,42.80
2023-02-15T20:31:10.398Z,45.60
2023-02-15T20:32:10.544Z,42.70
2023-02-15T20:33:10.844Z,43.00
2023-02-15T20:34:10.951Z,44.50
2023-02-15T20:35:11.208Z,43.20
2023-02-15T20:36:11.472Z,44.50
2023-02-15T20:37:11.598Z,44.70
2023-02-15T20:38:11.820Z,43.60
2023-02-15T20:39:12.034Z,45.60
2023-02-15T20:40:12.264Z,45.60
2023-02-15T20:41:12.526Z,45.60
2023-02-15T20:42:12.737Z,45.70
2023-02-15T20:43:12.971Z,48.00
2023-02-15T20:44:13.203Z,46.80
2023-02-15T20:45:13.451Z,47.70
2023-02-15T20:46:13.700Z,46.60
2023-02-15T20:47:14.022Z,45.50
2023-02-15T20:48:14.229Z,50.10
2023-02-15T20:49:14.442Z,46.30
2023-02-15T20:50:14.738Z,48.20
2023-02-15T20:51:14.829Z,49.50
2023-02-15T20:52:15.603Z,46.10
2023-02-15T20:53:15.343Z,48.30
2023-02-15T20:54:15.592Z,50.20
2023-02-15T20:55:15.855Z,48.90
2023-02-15T20:56:16.101Z,49.00
2023-02-15T20:57:16.412Z,46.10
2023-02-15T20:58:16.598Z,49.10
2023-02-15T20:59:16.846Z,45.80
2023-02-15T21:00:17.201Z,48.90
2023-02-15T21:01:17.391Z,50.70
2023-02-15T21:02:17.700Z,49.50
2023-02-15T21:03:18.008Z,50.50
2023-02-15T21:04:18.254Z,51.50
2023-02-15T21:05:18.442Z,51.60
2023-02-15T21:06:18.782Z,54.00
2023-02-15T21:07:19.173Z,51.00
2023-02-15T21:08:19.588Z,52.50
2023-02-15T21:09:19.639Z,50.90
2023-02-15T21:10:19.810Z,51.80
2023-02-15T21:11:20.096Z,51.00
2023-02-15T21:12:20.364Z,51.00
2023-02-15T21:13:20.741Z,50.50
2023-02-15T21:14:20.910Z,55.50
2023-02-15T21:15:21.176Z,49.90
2023-02-15T21:16:21.528Z,51.00
2023-02-15T21:17:21.740Z,52.60
2023-02-15T21:18:22.111Z,52.10
2023-02-15T21:19:22.321Z,50.20
2023-02-15T21:20:22.638Z,52.70
2023-02-15T21:21:22.849Z,52.20
2023-02-15T21:22:23.272Z,52.30
2023-02-15T21:23:23.574Z,55.30
2023-02-15T21:24:23.705Z,52.60
2023-02-15T21:25:23.987Z,53.20
2023-02-15T21:26:24.319Z,52.10
2023-02-15T21:27:24.544Z,52.70
2023-02-15T21:28:24.864Z,51.60
2023-02-15T21:29:25.111Z,51.60
2023-02-15T21:30:25.523Z,53.10
2023-02-15T21:31:25.930Z,49.40
2023-02-15T21:32:26.181Z,50.50
2023-02-15T21:33:26.417Z,50.10
2023-02-15T21:34:26.645Z,54.10
2023-02-15T21:35:27.042Z,53.20
2023-02-15T21:36:27.167Z,50.40
2023-02-15T21:37:27.567Z,52.80
2023-02-15T21:38:27.746Z,54.90
2023-02-15T21:39:28.019Z,53.40
2023-02-15T21:40:28.311Z,52.40
2023-02-15T21:41:28.579Z,53.80
2023-02-15T21:42:28.905Z,54.50
2023-02-15T21:43:29.141Z,53.30
2023-02-15T21:44:29.456Z,53.80
2023-02-15T21:45:29.720Z,53.20
2023-02-15T21:46:30.273Z,57.10
2023-02-15T21:47:30.350Z,54.80
2023-02-15T21:48:30.616Z,55.80
2023-02-15T21:49:30.905Z,57.10
2023-02-15T21:50:31.165Z,53.80
2023-02-15T21:51:31.558Z,55.20
2023-02-15T21:52:31.871Z,53.90
2023-02-15T21:53:32.068Z,57.50
2023-02-15T21:54:32.294Z,55.30
2023-02-15T21:55:32.578Z,54.80
2023-02-15T21:56:32.843Z,55.20
2023-02-15T21:57:33.222Z,58.40
2023-02-15T21:58:33.418Z,56.20
2023-02-15T21:59:33.871Z,58.00
2023-02-15T22:00:34.119Z,58.80
2023-02-15T22:01:34.266Z,56.90
2023-02-15T22:02:34.587Z,56.70
2023-02-15T22:03:34.984Z,55.30
2023-02-15T22:04:35.156Z,59.40
2023-02-15T22:05:35.416Z,59.00
2023-02-15T22:06:35.690Z,55.60
2023-02-15T22:07:35.988Z,56.30
2023-02-15T22:08:36.249Z,59.50
2023-02-15T22:09:36.720Z,57.80
2023-02-15T22:10:36.961Z,57.90
2023-02-15T22:11:37.452Z,57.70
2023-02-15T22:12:37.539Z,57.00
2023-02-15T22:13:37.667Z,59.10
2023-02-15T22:14:37.905Z,59.50
2023-02-15T22:15:38.322Z,58.10
2023-02-15T22:16:38.556Z,55.30
2023-02-15T22:17:38.760Z,55.20
2023-02-15T22:18:39.072Z,54.50
2023-02-15T22:19:39.354Z,60.90
2023-02-15T22:20:39.597Z,57.70
2023-02-15T22:21:39.890Z,60.30
2023-02-15T22:22:40.106Z,58.80
2023-02-15T22:23:40.505Z,61.80
2023-02-15T22:24:40.801Z,58.50
2023-02-15T22:25:40.832Z,56.70
2023-02-15T22:26:41.363Z,58.00
2023-02-15T22:27:41.471Z,57.70
2023-02-15T22:28:41.605Z,60.40
2023-02-15T22:29:41.769Z,59.60
2023-02-15T22:30:42.006Z,59.60
2023-02-15T22:31:42.741Z,60.30
2023-02-15T22:32:42.481Z,59.10
2023-02-15T22:33:42.773Z,60.50
2023-02-15T22:34:43.004Z,58.60
2023-02-15T22:35:43.235Z,60.70
2023-02-15T22:36:43.523Z,62.80
2023-02-15T22:37:43.760Z,61.80
2023-02-15T22:38:44.009Z,64.70
2023-02-15T22:39:44.266Z,60.00
2023-02-15T22:40:44.502Z,64.40
2023-02-15T22:41:44.768Z,61.70
2023-02-15T22:42:45.001Z,63.30
2023-02-15T22:43:45.259Z,60.40
2023-02-15T22:44:45.508Z,60.40
2023-02-15T22:45:45.835Z,64.10
2023-02-15T22:46:46.257Z,61.60
2023-02-15T22:47:46.235Z,59.40
2023-02-15T22:48:46.492Z,59.90
2023-02-15T22:49:46.766Z,61.00
2023-02-15T22:50:46.987Z,60.30
2023-02-15T22:51:47.266Z,57.60
2023-02-15T22:52:47.518Z,58.30
2023-02-15T22:53:47.739Z,62.00
2023-02-15T22:54:47.998Z,61.60
2023-02-15T22:55:48.251Z,63.90
2023-02-15T22:56:48.522Z,63.80
2023-02-15T22:57:48.824Z,64.70
2023-02-15T22:58:49.044Z,62.00
2023-02-15T22:59:49.308Z,64.90
2023-02-15T23:00:49.616Z,59.50
2023-02-15T23:01:49.812Z,60.40
2023-02-15T23:02:50.106Z,60.90
2023-02-15T23:03:50.377Z,61.90
2023-02-15T23:04:50.635Z,62.10
2023-02-15T23:05:50.816Z,61.40
2023-02-15T23:06:51.062Z,63.10
2023-02-15T23:07:51.425Z,61.30
2023-02-15T23:08:51.551Z,63.70
2023-02-15T23:09:51.992Z,62.40
2023-02-15T23:10:52.033Z,65.60
2023-02-15T23:11:52.274Z,62.90
2023-02-15T23:12:52.569Z,63.00
2023-02-15T23:13:52.774Z,64.40
2023-02-15T23:14:53.012Z,64.30
2023-02-15T23:15:53.255Z,63.30
2023-02-15T23:16:53.558Z,64.80
2023-02-15T23:17:53.766Z,66.30
2023-02-15T23:18:53.960Z,62.70
2023-02-15T23:19:54.239Z,63.10
2023-02-15T23:20:54.424Z,62.30
2023-02-15T23:21:54.676Z,60.90
2023-02-15T23:22:54.982Z,67.50
2023-02-15T23:23:55.177Z,62.40
2023-02-15T23:24:55.431Z,64.60
2023-02-15T23:25:55.694Z,63.20
2023-02-15T23:26:55.949Z,61.50
2023-02-15T23:27:56.240Z,63.10
2023-02-15T23:28:56.531Z,62.90
2023-02-15T23:29:56.742Z,63.20
2023-02-15T23:30:56.995Z,63.00
2023-02-15T23:31:57.452Z,66.80
2023-02-15T23:32:57.507Z,66.70
2023-02-15T23:33:57.759Z,67.90
2023-02-15T23:34:58.028Z,67.30
2023-02-15T23:35:58.257Z,65.20
2023-02-15T23:36:58.548Z,67.90
2023-02-15T23:37:58.759Z,64.30
2023-02-15T23:38:59.008Z,66.90
2023-02-15T23:39:59.432Z,67.60
2023-02-15T23:40:59.516Z,67.30
2023-02-15T23:41:59.787Z,67.90
2023-02-15T23:43:00.004Z,70.20
2023-02-15T23:44:00.278Z,68.60
2023-02-15T23:45:00.748Z,67.60
2023-02-15T23:46:00.759Z,68.40
2023-02-15T23:47:01.012Z,71.10
2023-02-15T23:48:01.258Z,69.30
2023-02-15T23:49:01.496Z,67.50
2023-02-15T23:50:02.049Z,71.60
2023-02-15T23:51:02.440Z,73.50
2023-02-15T23:52:02.261Z,71.90
2023-02-15T23:53:02.500Z,68.30
2023-02-15T23:54:02.748Z,71.20
2023-02-15T23:55:03.150Z,67.10
2023-02-15T23:56:03.249Z,70.40
2023-02-15T23:57:03.507Z,67.10
2023-02-15T23:58:03.768Z,66.40
2023-02-15T23:59:04.025Z,65.30
